Latest Coastal Weather Observations for Hobart Airport

IDT60701

Issued at 5:52 pm EST Monday 1 June 2020 (issued every 10 minutes, with the page automatically refreshed every 10 minutes)

About coastal observations | Map of coastal stations | Coastal observations for TAS | Marine services | Other Formats
Station Details ID: 094008 Name: HOBART AIRPORT Lat: -42.83 Lon: 147.50 Height: 4.0 m
Data from the previous 72 hours. | See also: Recent months at Hobart Airport
Date/Time
EST
Wind Sea
Height
m
Swell Vis
km
Cloud Weather Temp
°C
Press
hPa
Rain since
9am
mm
Dir  Spd
kts
Gust
kts
Height
m
Period
s
Dir
01/05:30pm S 11 16 - - - - 10 Cloudy - 10.3 1005.4 0.0
01/05:00pm S 12 16 - - - - 10 Cloudy - 10.4 1004.7 0.0
01/04:30pm S 14 18 - - - - 10 Cloudy - 11.3 1003.9 0.0
01/04:04pm SW 10 19 - - - - 10 Partly cloudy - 13.3 1003.4 0.0
01/04:00pm WSW 7 9 - - - - 10 Mostly clear - 14.6 1003.2 0.0
01/03:30pm NNW 5 7 - - - - 10 Mostly clear - 14.5 1002.9 0.0
01/03:00pm NW 7 8 - - - - 40 Partly cloudy Fine 16.0 1002.5 0.0
01/02:30pm NW 7 9 - - - - 10 Mostly clear - 15.9 1002.4 0.0
01/02:00pm NNW 6 8 - - - - 10 Mostly clear - 15.9 1002.3 0.0
01/01:30pm NW 8 9 - - - - 10 Mostly clear - 15.7 1002.1 0.0
01/01:00pm NW 7 11 - - - - 10 Mostly clear - 15.6 1002.0 0.0
01/12:30pm N 7 11 - - - - 10 Mostly clear - 14.6 1002.0 0.0
01/12:00pm NNW 6 9 - - - - 40 Partly cloudy Fine 14.2 1002.1 0.0
01/11:30am N 7 9 - - - - 10 Mostly clear - 13.7 1002.2 0.0
01/11:00am NNW 8 11 - - - - 10 Mostly clear - 12.7 1002.4 0.0
01/10:30am NNW 8 10 - - - - 10 Mostly clear - 11.7 1002.4 0.0
01/10:00am NW 8 11 - - - - 10 Mostly clear - 10.6 1002.3 0.0
01/09:30am NW 7 9 - - - - 10 Mostly clear - 10.1 1002.2 0.0
01/09:00am NW 8 10 - - - - 40 Mostly clear Fine 9.0 1002.2 0.0
01/08:30am NNW 8 10 - - - - 10 Mostly clear - 8.4 1001.9 0.0
01/08:00am NNW 9 11 - - - - 10 Mostly clear - 7.9 1001.8 0.0
01/07:30am NW 8 9 - - - - 10 - - 8.1 1001.7 0.0
01/07:00am NNW 7 9 - - - - 10 - - 8.4 1001.2 0.0
01/06:30am NNW 5 8 - - - - 10 - - 8.9 1001.2 0.0
01/06:00am N 4 6 - - - - 40 Mostly cloudy Fine 8.7 1001.0 0.0
01/05:30am NW 5 5 - - - - 10 - - 9.3 1001.0 0.0
01/05:00am NW 5 6 - - - - 10 Partly cloudy - 9.1 1001.0 0.0
01/04:30am NNW 5 6 - - - - 10 Cloudy - 9.2 1000.9 0.0
01/04:00am NNW 5 7 - - - - 10 Partly cloudy - 9.1 1001.1 0.0
01/03:30am NNW 5 8 - - - - 10 Cloudy - 8.7 1001.3 0.0
01/03:00am NNW 6 8 - - - - 10 Cloudy - 8.7 1001.5 0.0
01/02:30am NNW 8 10 - - - - 10 Cloudy - 9.6 1001.6 0.0
01/02:00am NW 7 8 - - - - 10 - - 9.5 1001.6 0.0
01/01:30am NNW 10 15 - - - - 10 - - 9.6 1001.6 0.0
01/01:00am N 7 10 - - - - 10 - - 9.7 1001.8 0.0
01/12:30am N 6 8 - - - - 10 - - 9.5 1002.3 0.0
01/12:00am NNE 4 7 - - - - 10 Cloudy - 9.6 1002.7 0.0
 
Date/Time
EST
Wind Sea
Height
m
Swell Vis
km
Cloud Weather Temp
°C
Press
hPa
Rain since
9am
mm
Dir  Spd
kts
Gust
kts
Height
m
Period
s
Dir
31/11:30pm NNE 7 12 - - - - 10 - - 9.8 1003.0 0.0
31/11:00pm NNE 5 9 - - - - 10 - - 9.8 1003.1 0.0
31/10:30pm N 5 9 - - - - 10 - - 9.2 1003.4 0.0
31/10:00pm NNW 5 10 - - - - 10 - - 9.5 1003.8 0.0
31/09:30pm NNW 9 14 - - - - 10 - - 9.4 1004.1 0.0
31/09:00pm NW 7 9 - - - - 40 Mostly cloudy Fine 9.1 1004.6 0.0
31/08:30pm WNW 10 12 - - - - 10 Mostly clear - 9.8 1004.8 0.0
31/08:00pm NW 7 9 - - - - 10 Mostly clear - 9.6 1005.0 0.0
31/07:30pm NNW 8 12 - - - - 10 Mostly clear - 10.8 1004.8 0.0
31/07:00pm NNW 9 13 - - - - 10 Mostly clear - 10.6 1004.8 0.0
31/06:30pm NNW 8 11 - - - - 10 Mostly clear - 11.2 1004.8 0.0
31/06:00pm NNW 7 10 - - - - 40 Partly cloudy Fine 10.8 1004.7 0.0
31/05:30pm N 7 9 - - - - 10 Mostly clear - 10.4 1004.6 0.0
31/05:00pm N 5 7 - - - - 10 Mostly clear - 11.1 1004.5 0.0
31/04:30pm NNW 6 8 - - - - 10 Mostly clear - 12.5 1004.4 0.0
31/04:00pm NNW 6 8 - - - - 10 Mostly clear - 13.6 1004.3 0.0
31/03:30pm NW 7 10 - - - - 10 Mostly clear - 15.0 1004.2 0.0
31/03:00pm NNW 11 14 - - - - 40 Mostly cloudy Fine 14.5 1004.3 0.0
31/02:30pm NNW 10 15 - - - - 10 Partly cloudy - 15.3 1004.1 0.0
31/02:00pm NW 10 14 - - - - 10 Partly cloudy - 14.8 1004.3 0.0
31/01:30pm NW 10 15 - - - - 10 Partly cloudy - 15.1 1004.5 0.0
31/01:00pm NW 15 19 - - - - 10 Mostly clear - 15.2 1005.0 0.0
31/12:30pm NW 10 14 - - - - 10 Mostly clear - 14.8 1005.6 0.0
31/12:00pm NNW 9 13 - - - - 40 Mostly cloudy Fine 14.5 1005.8 0.0
31/11:30am NW 12 18 - - - - 10 Mostly clear - 14.3 1006.0 0.0
31/11:00am NNW 10 17 - - - - 10 Mostly clear - 14.5 1006.4 0.0
31/10:30am NNW 8 11 - - - - 10 Mostly clear - 14.1 1006.6 0.0
31/10:00am N 8 12 - - - - 10 Mostly clear - 13.4 1006.8 0.0
31/09:30am N 8 12 - - - - 10 Mostly clear - 12.8 1006.8 0.0
31/09:00am N 7 9 - - - - 40 Mostly clear Fine 11.9 1006.8 0.0
31/08:30am N 7 9 - - - - 10 Mostly clear - 11.2 1006.4 0.0
31/08:00am NNW 6 8 - - - - 10 Mostly clear - 10.8 1006.1 0.0
31/07:30am N 6 9 - - - - 10 Mostly clear - 8.7 1005.5 0.0
31/07:00am NNW 6 8 - - - - 10 Mostly clear - 9.7 1005.2 0.0
31/06:30am NW 8 11 - - - - 10 Mostly clear - 12.8 1004.7 0.0
31/06:00am NW 17 23 - - - - 40 Mostly cloudy Distant precip. 13.8 1003.9 0.0
31/05:30am NW 15 19 - - - - 10 Partly cloudy - 14.2 1003.1 0.0
31/05:00am NNW 16 23 - - - - 10 Cloudy - 14.0 1002.3 0.0
31/04:32am NW 20 31 - - - - 10 Cloudy - 15.0 1002.0 0.0
31/04:30am NW 20 27 - - - - 10 Cloudy - 14.8 1001.8 0.0
31/04:05am NW 16 27 - - - - 10 Partly cloudy - 15.0 1001.4 0.0
31/04:00am NW 15 20 - - - - 10 Partly cloudy - 15.0 1001.2 0.0
31/03:34am NNW 17 27 - - - - 10 - - 15.3 1001.1 0.0
31/03:30am NNW 19 27 - - - - 10 - - 15.2 1001.0 0.0
31/03:00am NNW 18 30 - - - - 10 Cloudy - 15.4 1001.1 0.0
31/02:54am NNW 15 27 - - - - 10 - - 16.1 1001.0 0.0
31/02:30am N 11 18 - - - - 10 - - 14.2 1001.5 0.0
31/02:00am N 13 21 - - - - 10 Partly cloudy - 13.8 1002.1 0.0
31/01:30am N 15 19 - - - - 10 Partly cloudy - 14.4 1002.5 0.0
31/01:00am N 14 21 - - - - 10 Partly cloudy - 14.4 1002.9 0.0
31/12:30am N 16 21 - - - - 10 Partly cloudy - 14.5 1003.7 0.0
31/12:00am N 15 26 - - - - 10 Mostly cloudy - 14.1 1004.5 0.0
 
Date/Time
EST
Wind Sea
Height
m
Swell Vis
km
Cloud Weather Temp
°C
Press
hPa
Rain since
9am
mm
Dir  Spd
kts
Gust
kts
Height
m
Period
s
Dir
30/11:57pm N 15 26 - - - - 10 Cloudy - 14.4 1004.5 0.0
30/11:30pm N 14 22 - - - - 10 Mostly clear - 13.8 1005.1 0.0
30/11:00pm N 16 24 - - - - 10 Mostly clear - 13.5 1005.8 0.0
30/10:30pm N 13 23 - - - - 10 Mostly clear - 13.3 1006.6 0.0
30/10:00pm N 16 26 - - - - 10 Mostly clear - 13.0 1007.4 0.0
30/09:30pm N 14 24 - - - - 10 Mostly clear - 12.9 1007.8 0.0
30/09:00pm NNW 15 27 - - - - 40 Partly cloudy Fine 12.8 1008.1 0.0
30/08:50pm N 15 27 - - - - 10 Mostly clear - 12.8 1008.0 0.0
30/08:30pm N 14 23 - - - - 10 Mostly clear - 13.1 1007.9 0.0
30/08:00pm N 11 20 - - - - 10 Mostly clear - 13.2 1008.5 0.0
30/07:30pm N 15 21 - - - - 10 Mostly clear - 13.3 1008.8 0.0
30/07:00pm N 18 28 - - - - 10 Mostly clear - 13.6 1009.0 0.0
30/06:58pm N 18 28 - - - - 10 Mostly clear - 13.6 1009.0 0.0
30/06:30pm N 19 26 - - - - 10 Mostly clear - 13.5 1009.5 0.0
30/06:00pm N 17 27 - - - - 40 Mostly cloudy Fine 13.9 1009.7 0.0
30/05:38pm N 15 26 - - - - 10 Mostly clear - 14.2 1009.9 0.0
30/05:30pm N 15 23 - - - - 10 Mostly clear - 14.3 1010.0 0.0
30/05:00pm NNE 13 19 - - - - 10 - - 14.5 1010.4 0.0
30/04:30pm NNE 13 18 - - - - 10 - - 14.2 1011.1 0.0
30/04:00pm NNE 12 18 - - - - 10 - - 15.1 1011.6 0.0
30/03:30pm N 14 19 - - - - 10 - - 15.4 1011.9 0.0
30/03:00pm N 16 21 - - - - 40 Mostly cloudy Fine 15.9 1012.0 0.0
30/02:30pm N 14 22 - - - - 10 Partly cloudy - 16.5 1012.4 0.0
30/02:00pm N 13 18 - - - - 10 Mostly clear - 16.9 1012.9 0.0
30/01:30pm N 12 18 - - - - 10 Mostly clear - 17.0 1013.5 0.0
30/01:00pm N 11 18 - - - - 10 Mostly clear - 16.9 1014.0 0.0
30/12:30pm N 13 20 - - - - 10 Mostly clear - 16.9 1014.7 0.0
30/12:00pm NNW 13 21 - - - - 40 Mostly cloudy Fine 16.5 1015.3 0.0
30/11:30am N 16 21 - - - - 10 Mostly clear - 16.1 1016.0 0.0
30/11:00am N 15 21 - - - - 10 Mostly clear - 15.8 1016.6 0.0
30/10:30am N 10 14 - - - - 10 Mostly clear - 15.1 1017.2 0.0
30/10:00am N 11 16 - - - - 10 Mostly clear - 14.6 1017.8 0.0
30/09:30am NW 8 10 - - - - 10 Mostly clear - 13.2 1018.1 0.0
30/09:00am NW 8 10 - - - - 40 Mostly cloudy Fine 12.0 1018.2 0.0
30/08:30am NNW 9 14 - - - - 10 Mostly clear - 11.3 1018.0 0.0
30/08:00am NNW 9 12 - - - - 10 Mostly clear - 10.5 1017.9 0.0
30/07:30am NNW 6 8 - - - - 10 Mostly clear - 8.5 1017.9 0.0
30/07:00am NNW 5 6 - - - - 10 Mostly clear - 8.7 1018.1 0.0
30/06:30am NNW 4 6 - - - - 10 Partly cloudy - 9.2 1018.1 0.0
30/06:00am NW 3 4 - - - - 40 Mostly cloudy Fine 9.7 1018.2 0.0
30/05:30am NW 5 5 - - - - 10 Partly cloudy - 9.9 1018.3 0.0
30/05:00am NNW 4 5 - - - - 10 - - 9.6 1018.1 0.0
30/04:30am NNW 6 8 - - - - 10 - - 10.8 1018.3 0.0
30/04:00am NNW 8 11 - - - - 10 - - 11.8 1018.4 0.0
30/03:30am NNW 8 12 - - - - 10 - - 11.6 1018.3 0.0
30/03:00am N 5 7 - - - - 10 - - 10.4 1018.4 0.0
30/02:30am N 8 12 - - - - 10 - - 10.9 1018.6 0.0
30/02:00am N 7 10 - - - - 10 Partly cloudy - 10.6 1018.8 0.0
30/01:30am N 8 13 - - - - 10 Partly cloudy - 11.1 1018.9 0.0
30/01:00am NNW 7 9 - - - - 10 Cloudy - 11.8 1019.0 0.0
30/12:30am NNW 9 14 - - - - 10 Partly cloudy - 12.3 1019.1 0.0
30/12:00am NNW 8 15 - - - - 10 - - 12.1 1019.2 0.0
 
Date/Time
EST
Wind Sea
Height
m
Swell Vis
km
Cloud Weather Temp
°C
Press
hPa
Rain since
9am
mm
Dir  Spd
kts
Gust
kts
Height
m
Period
s
Dir
29/11:30pm NNW 11 17 - - - - 10 Mostly clear - 12.6 1019.2 0.0
29/11:00pm NNW 8 13 - - - - 10 Mostly clear - 12.1 1019.4 0.0
29/10:30pm NNW 10 17 - - - - 10 Mostly clear - 12.1 1019.6 0.0
29/10:00pm NNW 9 14 - - - - 10 Mostly clear - 12.4 1019.5 0.0
29/09:30pm NNW 10 16 - - - - 10 Mostly clear - 12.0 1019.6 0.0
29/09:00pm NNW 11 17 - - - - 40 Mostly cloudy Fine 12.0 1019.6 0.0
29/08:30pm NNW 10 15 - - - - 10 Mostly clear - 12.6 1019.5 0.0
29/08:00pm N 7 11 - - - - 10 Mostly clear - 13.0 1019.2 0.0
29/07:30pm N 6 10 - - - - 10 Mostly clear - 12.0 1019.1 0.0
29/07:00pm NNW 13 18 - - - - 10 Mostly clear - 14.8 1019.0 0.0
29/06:30pm NW 15 19 - - - - 10 Mostly clear - 15.2 1019.0 0.0
29/06:00pm NW 13 20 - - - - 40 Mostly cloudy Fine 15.0 1018.9 0.0

Other formats

Comma delimited format used in spreadsheet applications
http://www.bom.gov.au/fwo/IDT60701/IDT60701.94975.axf

JavaScript Object Notation format (JSON) in row-major order
http://www.bom.gov.au/fwo/IDT60701/IDT60701.94975.json

Data quality

Most of these data are generated automatically and are frequently updated. Quality checks on data are not normally performed. It is possible for incorrect values to appear. Refer to information at About Latest Weather Observations and please check the disclaimer before using these data.